createdAt,value
2023-02-11T00:03:35.871Z,51.38
2023-02-11T00:06:23.610Z,45.83
2023-02-11T00:09:11.121Z,53.78
2023-02-11T00:11:58.166Z,49.58
2023-02-11T00:14:45.233Z,49.60
2023-02-11T00:17:32.913Z,48.47
2023-02-11T00:20:19.957Z,56.40
2023-02-11T00:23:07.209Z,47.33
2023-02-11T00:25:54.215Z,45.25
2023-02-11T00:28:41.579Z,53.17
2023-02-11T00:31:29.360Z,54.05
2023-02-11T00:34:16.591Z,52.40
2023-02-11T00:37:04.387Z,57.80
2023-02-11T00:39:51.549Z,48.83
2023-02-11T00:42:38.585Z,51.17
2023-02-11T00:45:25.695Z,54.45
2023-02-11T00:48:12.815Z,50.15
2023-02-11T00:51:00.377Z,51.50
2023-02-11T00:53:47.450Z,55.10
2023-02-11T00:56:34.787Z,53.63
2023-02-11T00:59:21.804Z,49.85
2023-02-11T01:02:08.924Z,50.35
2023-02-11T01:04:56.057Z,52.60
2023-02-11T01:07:43.160Z,54.08
2023-02-11T01:10:30.229Z,53.50
2023-02-11T01:13:17.325Z,51.50
2023-02-11T01:16:07.704Z,56.00
2023-02-11T01:18:54.861Z,52.35
2023-02-11T01:21:42.239Z,53.42
2023-02-11T01:24:29.444Z,55.90
2023-02-11T01:27:16.522Z,50.13
2023-02-11T01:30:05.248Z,50.65
2023-02-11T01:32:52.350Z,56.28
2023-02-11T01:35:40.542Z,52.58
2023-02-11T01:38:27.610Z,53.22
2023-02-11T01:41:15.312Z,56.13
2023-02-11T01:44:32.123Z,56.30
2023-02-11T01:47:20.648Z,53.28
2023-02-11T01:50:07.796Z,55.22
2023-02-11T01:53:15.190Z,52.10
2023-02-11T01:56:22.479Z,52.17
2023-02-11T01:59:17.838Z,55.00
2023-02-11T02:02:09.750Z,55.05
2023-02-11T02:05:04.917Z,55.53
2023-02-11T02:08:12.055Z,51.58
2023-02-11T02:11:01.090Z,56.60
2023-02-11T02:13:49.624Z,61.65
2023-02-11T02:16:37.831Z,58.50
2023-02-11T02:19:33.926Z,52.65
2023-02-11T02:22:40.560Z,53.85
2023-02-11T02:25:27.568Z,62.13
2023-02-11T02:28:36.083Z,57.85
2023-02-11T02:31:41.470Z,56.47
2023-02-11T02:34:37.704Z,57.38
2023-02-11T02:37:37.059Z,57.95
2023-02-11T02:40:29.768Z,60.00
2023-02-11T02:43:17.504Z,53.90
2023-02-11T02:46:35.047Z,64.13
2023-02-11T02:49:22.079Z,63.47
2023-02-11T02:52:19.125Z,57.60
2023-02-11T02:55:15.311Z,62.70
2023-02-11T02:58:09.349Z,64.75
2023-02-11T03:01:13.421Z,49.78
2023-02-11T03:04:22.367Z,59.15
2023-02-11T03:07:18.236Z,66.28
2023-02-11T03:10:29.026Z,59.50
2023-02-11T03:13:19.160Z,58.78
2023-02-11T03:16:13.767Z,61.05
2023-02-11T03:19:06.302Z,61.70
2023-02-11T03:21:53.766Z,53.67
2023-02-11T03:24:41.968Z,55.13
2023-02-11T03:27:47.029Z,54.00
2023-02-11T03:30:47.150Z,56.92
2023-02-11T03:36:39.178Z,51.00
2023-02-11T03:39:33.309Z,52.33
2023-02-11T03:42:23.231Z,55.17
2023-02-11T03:45:14.530Z,53.63
2023-02-11T03:48:15.061Z,51.42
2023-02-11T03:51:05.299Z,44.08
2023-02-11T03:56:49.599Z,45.05
2023-02-11T03:59:59.492Z,50.10
2023-02-11T04:02:46.831Z,49.85
2023-02-11T04:05:34.410Z,45.67
2023-02-11T04:08:21.610Z,46.75
2023-02-11T04:11:08.866Z,45.15
2023-02-11T04:13:56.006Z,50.17
2023-02-11T04:16:43.091Z,50.85
2023-02-11T04:19:30.494Z,48.35
2023-02-11T04:22:17.559Z,53.42
2023-02-11T04:25:05.935Z,49.65
2023-02-11T04:27:53.096Z,49.88
2023-02-11T04:30:40.217Z,54.88
2023-02-11T04:33:27.322Z,54.72
2023-02-11T04:36:14.440Z,49.97
2023-02-11T04:39:01.769Z,55.83
2023-02-11T04:41:48.928Z,53.35
2023-02-11T04:44:35.925Z,57.83
2023-02-11T04:47:23.226Z,55.90
2023-02-11T04:50:10.413Z,53.58
2023-02-11T04:52:57.508Z,52.70
2023-02-11T04:55:44.701Z,51.25
2023-02-11T04:58:31.770Z,51.45
2023-02-11T05:01:19.011Z,53.92
2023-02-11T05:04:06.229Z,56.58
2023-02-11T05:06:53.295Z,53.25
2023-02-11T05:09:40.615Z,54.67
2023-02-11T05:12:27.717Z,53.78
2023-02-11T05:15:14.841Z,47.80
2023-02-11T05:18:01.889Z,49.15
2023-02-11T05:20:49.319Z,49.78
2023-02-11T05:23:37.418Z,43.83
2023-02-11T05:26:24.679Z,49.55
2023-02-11T05:29:11.728Z,48.78
2023-02-11T05:32:00.243Z,51.92
2023-02-11T05:34:47.279Z,49.53
2023-02-11T05:37:34.364Z,53.17
2023-02-11T05:40:21.613Z,51.35
2023-02-11T05:43:08.776Z,51.97
2023-02-11T05:45:55.863Z,51.00
2023-02-11T05:48:43.143Z,47.70
2023-02-11T05:51:30.228Z,46.70
2023-02-11T05:54:17.743Z,45.22
2023-02-11T05:57:05.039Z,44.20
2023-02-11T05:59:52.109Z,47.17
2023-02-11T06:02:39.442Z,48.55
2023-02-11T06:05:26.817Z,52.75
2023-02-11T06:08:13.911Z,50.03
2023-02-11T06:11:00.962Z,49.35
2023-02-11T06:13:48.075Z,45.88
2023-02-11T06:16:35.196Z,55.80
2023-02-11T06:19:22.213Z,43.60
2023-02-11T06:22:09.416Z,49.03
2023-02-11T06:25:01.649Z,56.88
2023-02-11T06:27:49.230Z,46.70
2023-02-11T06:30:39.541Z,46.88
2023-02-11T06:33:26.675Z,47.70
2023-02-11T06:36:21.910Z,48.45
2023-02-11T06:39:09.317Z,43.92
2023-02-11T06:41:56.404Z,45.03
2023-02-11T06:44:44.689Z,43.08
2023-02-11T06:47:31.948Z,43.58
2023-02-11T06:50:19.183Z,42.65
2023-02-11T06:53:06.214Z,41.30
2023-02-11T06:55:53.348Z,36.05
2023-02-11T06:58:40.691Z,43.97
2023-02-11T07:01:28.761Z,38.40
2023-02-11T07:04:15.863Z,44.03
2023-02-11T07:07:02.961Z,40.95
2023-02-11T07:09:50.027Z,36.92
2023-02-11T07:12:37.299Z,47.72
2023-02-11T07:15:24.387Z,45.92
2023-02-11T07:18:14.257Z,42.05
2023-02-11T07:23:53.470Z,45.10
2023-02-11T07:26:40.722Z,47.03
2023-02-11T07:29:27.806Z,49.20
2023-02-11T07:32:14.979Z,41.80
2023-02-11T07:35:02.259Z,44.63
2023-02-11T07:37:49.363Z,46.30
2023-02-11T07:40:36.837Z,47.45
2023-02-11T07:43:23.939Z,45.47
2023-02-11T07:46:13.816Z,47.15
2023-02-11T07:49:00.892Z,41.78
2023-02-11T07:51:49.369Z,45.78
2023-02-11T07:54:36.558Z,43.75
2023-02-11T07:57:23.645Z,41.45
2023-02-11T08:00:11.660Z,40.53
2023-02-11T08:02:58.788Z,41.05
2023-02-11T08:05:45.869Z,41.05
2023-02-11T08:08:33.227Z,40.08
2023-02-11T08:11:23.769Z,38.95
2023-02-11T08:14:11.388Z,40.38
2023-02-11T08:16:58.746Z,39.10
2023-02-11T08:19:46.031Z,36.70
2023-02-11T08:22:34.805Z,40.42
2023-02-11T08:25:22.049Z,42.30
2023-02-11T08:28:09.401Z,36.22
2023-02-11T08:30:56.600Z,36.00
2023-02-11T08:33:44.725Z,33.60
2023-02-11T08:36:34.665Z,35.40
2023-02-11T08:39:22.919Z,37.33
2023-02-11T08:42:10.321Z,34.20
2023-02-11T08:44:57.531Z,35.25
2023-02-11T08:47:44.761Z,34.97
2023-02-11T08:50:32.398Z,31.63
2023-02-11T08:53:19.516Z,32.40
2023-02-11T08:56:06.951Z,31.58
2023-02-11T08:58:55.106Z,35.00
2023-02-11T09:01:42.432Z,35.80
2023-02-11T09:04:29.565Z,32.55
2023-02-11T09:07:17.859Z,32.95
2023-02-11T09:10:06.515Z,32.42
2023-02-11T09:12:53.609Z,33.90
2023-02-11T09:15:40.750Z,29.88
2023-02-11T09:18:28.681Z,33.28
2023-02-11T09:21:17.206Z,35.75
2023-02-11T09:24:06.565Z,36.03
2023-02-11T09:26:54.094Z,30.45
2023-02-11T09:29:41.375Z,29.33
2023-02-11T09:32:30.212Z,33.03
2023-02-11T09:35:17.947Z,26.25
2023-02-11T09:38:05.392Z,28.13
2023-02-11T09:40:53.006Z,26.60
2023-02-11T09:43:47.424Z,31.38
2023-02-11T09:46:42.859Z,26.20
2023-02-11T09:49:41.131Z,27.40
2023-02-11T09:52:42.666Z,26.50
2023-02-11T09:55:37.956Z,27.48
2023-02-11T09:58:32.270Z,24.63
2023-02-11T10:01:54.931Z,26.67
2023-02-11T10:05:01.798Z,27.13
2023-02-11T10:07:56.272Z,27.77
2023-02-11T10:10:53.335Z,33.33
2023-02-11T10:13:50.093Z,31.52
2023-02-11T10:16:44.531Z,34.13
2023-02-11T10:19:34.805Z,31.45
2023-02-11T10:25:23.431Z,25.80
2023-02-11T10:28:19.157Z,36.85
2023-02-11T10:31:16.306Z,27.58
2023-02-11T10:34:13.001Z,30.00
2023-02-11T10:37:00.576Z,67.68
2023-02-11T10:39:48.020Z,28.05
2023-02-11T10:42:36.243Z,31.42
2023-02-11T10:45:45.749Z,27.67
2023-02-11T10:48:41.708Z,29.60
2023-02-11T10:51:33.976Z,37.75
2023-02-11T10:54:21.549Z,32.65
2023-02-11T10:57:19.765Z,29.42
2023-02-11T11:00:23.456Z,30.92
2023-02-11T11:03:25.544Z,27.70
2023-02-11T11:06:13.495Z,30.33
2023-02-11T11:09:02.602Z,29.02
2023-02-11T11:11:54.034Z,33.42
2023-02-11T11:14:41.207Z,28.35
2023-02-11T11:17:29.434Z,31.48
2023-02-11T11:20:16.678Z,30.58
2023-02-11T11:23:25.259Z,35.35
2023-02-11T11:26:17.603Z,30.20
2023-02-11T11:29:13.784Z,31.00
2023-02-11T11:32:05.846Z,30.15
2023-02-11T11:35:00.278Z,32.47
2023-02-11T11:37:55.891Z,29.45
2023-02-11T11:40:42.933Z,42.20
2023-02-11T11:43:30.347Z,28.17
2023-02-11T11:46:25.013Z,30.05
2023-02-11T11:49:36.232Z,28.08
2023-02-11T11:52:32.646Z,31.02
2023-02-11T11:55:39.154Z,29.45
2023-02-11T11:58:29.474Z,22.35
2023-02-11T12:01:16.792Z,26.30
2023-02-11T12:04:40.915Z,24.92
2023-02-11T12:07:49.729Z,27.52
2023-02-11T12:11:03.400Z,23.63
2023-02-11T12:14:00.991Z,24.40
2023-02-11T12:17:09.985Z,25.02
2023-02-11T12:20:35.440Z,25.95
2023-02-11T12:23:57.933Z,27.95
2023-02-11T12:26:51.438Z,28.30
2023-02-11T12:29:56.244Z,30.08
2023-02-11T12:32:54.236Z,26.80
2023-02-11T12:36:00.613Z,28.08
2023-02-11T12:39:06.151Z,29.00
2023-02-11T12:42:28.934Z,28.75
2023-02-11T12:45:36.192Z,26.15
2023-02-11T12:48:48.200Z,25.58
2023-02-11T12:52:08.915Z,26.83
2023-02-11T12:55:04.348Z,27.00
2023-02-11T12:57:54.905Z,29.13
2023-02-11T13:00:45.017Z,30.10
2023-02-11T13:06:35.173Z,26.98
2023-02-11T13:09:32.531Z,27.40
2023-02-11T13:12:38.350Z,28.80
2023-02-11T13:15:26.748Z,29.90
2023-02-11T13:18:30.603Z,23.40
2023-02-11T13:21:52.225Z,27.27
2023-02-11T13:24:48.152Z,27.55
2023-02-11T13:27:51.257Z,26.17
2023-02-11T13:30:47.129Z,26.63
2023-02-11T13:33:37.661Z,23.98
2023-02-11T13:36:32.733Z,29.85
2023-02-11T13:39:23.075Z,27.63
2023-02-11T13:42:16.207Z,24.10
2023-02-11T13:45:19.150Z,27.85
2023-02-11T13:48:27.870Z,23.20
2023-02-11T13:51:19.166Z,25.65
2023-02-11T13:54:07.976Z,25.50
2023-02-11T13:57:20.735Z,22.92
2023-02-11T14:00:09.740Z,22.58
2023-02-11T14:03:38.837Z,22.80
2023-02-11T14:07:01.473Z,22.00
2023-02-11T14:09:49.048Z,38.85
2023-02-11T14:12:37.217Z,23.77
2023-02-11T14:15:27.003Z,21.40
2023-02-11T14:18:37.198Z,23.67
2023-02-11T14:21:33.579Z,23.35
2023-02-11T14:24:20.821Z,24.65
2023-02-11T14:27:41.202Z,22.42
2023-02-11T14:30:44.238Z,23.73
2023-02-11T14:33:56.267Z,19.67
2023-02-11T14:36:46.687Z,22.55
2023-02-11T14:39:49.726Z,22.00
2023-02-11T14:42:40.347Z,25.63
2023-02-11T14:45:31.311Z,21.83
2023-02-11T14:48:22.412Z,26.42
2023-02-11T14:51:27.620Z,22.48
2023-02-11T14:54:21.607Z,21.75
2023-02-11T14:57:16.834Z,22.98
2023-02-11T15:00:16.624Z,22.77
2023-02-11T15:03:04.634Z,21.98
2023-02-11T15:06:03.394Z,23.48
2023-02-11T15:09:01.584Z,29.40
2023-02-11T15:11:51.807Z,29.80
2023-02-11T15:17:32.353Z,25.87
2023-02-11T15:20:25.548Z,23.35
2023-02-11T15:23:22.042Z,26.13
2023-02-11T15:26:21.886Z,21.45
2023-02-11T15:29:17.074Z,23.50
2023-02-11T15:32:17.380Z,27.90
2023-02-11T15:35:08.716Z,26.15
2023-02-11T15:37:58.950Z,25.83
2023-02-11T15:43:52.781Z,24.70
2023-02-11T15:46:43.197Z,24.05
2023-02-11T15:49:30.653Z,26.13
2023-02-11T15:52:27.057Z,25.52
2023-02-11T15:55:17.111Z,24.77
2023-02-11T15:58:05.120Z,23.30
2023-02-11T16:01:00.009Z,24.42
2023-02-11T16:03:50.956Z,24.38
2023-02-11T16:06:44.174Z,22.98
2023-02-11T16:09:36.834Z,23.52
2023-02-11T16:12:30.732Z,26.35
2023-02-11T16:15:49.510Z,23.83
2023-02-11T16:18:40.386Z,28.40
2023-02-11T16:21:42.948Z,25.63
2023-02-11T16:24:33.849Z,25.30
2023-02-11T16:27:25.860Z,28.95
2023-02-11T16:30:29.536Z,28.20
2023-02-11T16:33:17.631Z,27.83
2023-02-11T16:36:19.843Z,25.90
2023-02-11T16:39:07.825Z,30.52
2023-02-11T16:41:56.916Z,31.50
2023-02-11T16:44:45.084Z,25.93
2023-02-11T16:47:35.446Z,26.83
2023-02-11T16:50:26.884Z,27.85
2023-02-11T16:53:22.912Z,27.70
2023-02-11T16:56:18.499Z,27.55
2023-02-11T16:59:06.115Z,28.65
2023-02-11T17:01:55.675Z,29.30
2023-02-11T17:04:45.673Z,28.00
2023-02-11T17:07:33.978Z,27.75
2023-02-11T17:10:24.050Z,27.55
2023-02-11T17:13:12.312Z,28.08
2023-02-11T17:16:01.308Z,33.28
2023-02-11T17:18:49.586Z,31.27
2023-02-11T17:21:38.365Z,30.48
2023-02-11T17:24:27.540Z,30.48
2023-02-11T17:27:16.016Z,31.27
2023-02-11T17:30:04.212Z,27.25
2023-02-11T17:32:51.683Z,27.42
2023-02-11T17:35:42.609Z,30.02
2023-02-11T17:38:29.915Z,26.27
2023-02-11T17:41:18.069Z,29.80
2023-02-11T17:44:08.889Z,31.38
2023-02-11T17:46:56.489Z,24.90
2023-02-11T17:49:44.476Z,32.10
2023-02-11T17:52:33.579Z,35.35
2023-02-11T17:55:21.542Z,42.97
2023-02-11T17:58:10.382Z,73.97
2023-02-11T18:01:01.814Z,46.97
2023-02-11T18:03:49.761Z,83.95
2023-02-11T18:06:37.734Z,72.15
2023-02-11T18:09:27.069Z,50.17
2023-02-11T18:12:17.803Z,32.40
2023-02-11T18:15:06.497Z,33.40
2023-02-11T18:17:56.499Z,30.23
2023-02-11T18:20:44.281Z,30.55
2023-02-11T18:23:32.830Z,35.65
2023-02-11T18:26:24.657Z,31.75
2023-02-11T18:29:12.605Z,30.25
2023-02-11T18:32:00.682Z,33.58
2023-02-11T18:34:48.884Z,34.15
2023-02-11T18:37:36.979Z,31.80
2023-02-11T18:40:24.611Z,31.52
2023-02-11T18:43:12.770Z,30.98
2023-02-11T18:46:01.348Z,29.25
2023-02-11T18:48:50.775Z,33.15
2023-02-11T18:51:39.631Z,31.90
2023-02-11T18:54:27.625Z,33.80
2023-02-11T18:57:15.854Z,32.22
2023-02-11T19:00:04.965Z,36.95
2023-02-11T19:02:53.748Z,31.52
2023-02-11T19:05:46.305Z,35.53
2023-02-11T19:08:34.795Z,44.55
2023-02-11T19:11:43.251Z,36.13
2023-02-11T19:14:34.969Z,30.10
2023-02-11T19:17:24.864Z,29.63
2023-02-11T19:20:05.796Z,33.92
2023-02-11T19:22:41.699Z,34.45
2023-02-11T19:25:25.217Z,33.15
2023-02-11T19:27:58.616Z,31.67
2023-02-11T19:33:12.463Z,29.25
2023-02-11T19:36:04.387Z,30.80
2023-02-11T19:38:35.255Z,32.63
2023-02-11T19:43:54.609Z,31.67
2023-02-11T19:46:42.405Z,31.65
2023-02-11T19:49:23.706Z,35.72
2023-02-11T19:51:56.302Z,34.22
2023-02-11T19:57:26.082Z,30.77
2023-02-11T20:00:14.593Z,31.58
2023-02-11T20:03:03.387Z,32.85
2023-02-11T20:05:51.249Z,35.22
2023-02-11T20:08:43.529Z,32.95
2023-02-11T20:11:32.550Z,28.10
2023-02-11T20:14:20.146Z,36.03
2023-02-11T20:17:08.341Z,36.95
2023-02-11T20:19:56.025Z,35.92
2023-02-11T20:22:45.355Z,31.73
2023-02-11T20:25:33.000Z,37.43
2023-02-11T20:28:20.838Z,31.88
2023-02-11T20:31:12.805Z,34.70
2023-02-11T20:34:02.188Z,34.58
2023-02-11T20:36:54.418Z,31.80
2023-02-11T20:39:45.557Z,39.35
2023-02-11T20:42:33.568Z,29.73
2023-02-11T20:45:21.498Z,35.33
2023-02-11T20:48:09.760Z,35.90
2023-02-11T20:51:07.428Z,33.67
2023-02-11T20:53:55.751Z,34.38
2023-02-11T20:56:47.450Z,32.25
2023-02-11T20:59:37.236Z,33.08
2023-02-11T21:02:25.345Z,33.05
2023-02-11T21:05:14.791Z,34.60
2023-02-11T21:08:03.041Z,31.27
2023-02-11T21:10:51.214Z,32.20
2023-02-11T21:13:44.238Z,32.53
2023-02-11T21:16:32.934Z,33.28
2023-02-11T21:19:23.947Z,35.50
2023-02-11T21:22:14.997Z,34.22
2023-02-11T21:25:02.879Z,36.55
2023-02-11T21:27:52.218Z,33.22
2023-02-11T21:30:41.386Z,35.92
2023-02-11T21:33:30.394Z,36.08
2023-02-11T21:36:20.027Z,33.03
2023-02-11T21:39:09.424Z,35.47
2023-02-11T21:41:57.107Z,30.80
2023-02-11T21:44:44.761Z,30.23
2023-02-11T21:47:32.394Z,32.15
2023-02-11T21:50:20.593Z,33.83
2023-02-11T21:53:09.465Z,31.05
2023-02-11T21:56:09.187Z,31.33
2023-02-11T21:58:58.787Z,31.05
2023-02-11T22:01:46.574Z,31.85
2023-02-11T22:04:34.009Z,31.48
2023-02-11T22:07:23.115Z,30.90
2023-02-11T22:10:12.244Z,32.47
2023-02-11T22:12:59.370Z,35.88
2023-02-11T22:15:58.128Z,34.53
2023-02-11T22:18:48.122Z,34.55
2023-02-11T22:21:35.295Z,31.20
2023-02-11T22:24:22.515Z,32.20
2023-02-11T22:27:09.588Z,30.90
2023-02-11T22:29:56.622Z,30.00
2023-02-11T22:32:43.702Z,30.60
2023-02-11T22:35:31.697Z,30.95
2023-02-11T22:38:18.767Z,27.10
2023-02-11T22:41:08.206Z,38.17
2023-02-11T22:43:55.304Z,31.02
2023-02-11T22:46:42.347Z,31.63
2023-02-11T22:49:29.437Z,33.28
2023-02-11T22:52:16.820Z,32.88
2023-02-11T22:55:04.909Z,31.23
2023-02-11T22:57:51.937Z,33.85
2023-02-11T23:00:41.086Z,31.17
2023-02-11T23:03:28.971Z,32.15
2023-02-11T23:06:16.077Z,33.22
2023-02-11T23:09:07.744Z,32.03
2023-02-11T23:11:55.712Z,33.13
2023-02-11T23:14:42.860Z,32.45
2023-02-11T23:17:30.858Z,31.75
2023-02-11T23:20:17.878Z,29.65
2023-02-11T23:23:05.351Z,33.42
2023-02-11T23:25:52.426Z,31.30
2023-02-11T23:28:40.445Z,28.80
2023-02-11T23:31:40.457Z,34.85
2023-02-11T23:34:27.696Z,31.67
2023-02-11T23:37:14.747Z,40.08
2023-02-11T23:40:01.965Z,32.47
2023-02-11T23:42:49.187Z,31.02
2023-02-11T23:45:36.441Z,33.00
2023-02-11T23:48:23.851Z,39.35
2023-02-11T23:51:11.229Z,33.63
2023-02-11T23:53:58.243Z,36.60
2023-02-11T23:56:46.190Z,37.83
2023-02-11T23:59:33.276Z,34.25
